createdAt,value
2022-09-23T00:00:36.810Z,10.48
2022-09-23T00:03:03.839Z,10.38
2022-09-23T00:05:31.014Z,10.37
2022-09-23T00:07:57.902Z,10.38
2022-09-23T00:10:26.617Z,10.20
2022-09-23T00:12:55.134Z,10.20
2022-09-23T00:15:21.990Z,10.17
2022-09-23T00:17:48.526Z,10.12
2022-09-23T00:20:14.887Z,10.12
2022-09-23T00:22:41.326Z,10.21
2022-09-23T00:25:09.294Z,10.31
2022-09-23T00:27:36.600Z,10.17
2022-09-23T00:30:06.898Z,10.20
2022-09-23T00:32:34.279Z,10.18
2022-09-23T00:35:00.652Z,10.26
2022-09-23T00:37:28.644Z,10.04
2022-09-23T00:39:55.531Z,10.02
2022-09-23T00:42:24.464Z,10.10
2022-09-23T00:44:54.161Z,10.08
2022-09-23T00:47:30.753Z,10.04
2022-09-23T00:50:13.700Z,10.07
2022-09-23T00:52:40.067Z,10.12
2022-09-23T00:55:11.257Z,10.01
2022-09-23T00:57:40.103Z,10.07
2022-09-23T01:00:07.935Z,9.94
2022-09-23T01:02:35.120Z,9.84
2022-09-23T01:05:04.220Z,9.76
2022-09-23T01:07:33.346Z,9.80
2022-09-23T01:10:01.350Z,9.73
2022-09-23T01:13:13.624Z,9.73
2022-09-23T01:15:58.483Z,9.66
2022-09-23T01:18:51.287Z,9.74
2022-09-23T01:21:43.096Z,9.71
2022-09-23T01:24:45.954Z,9.74
2022-09-23T01:27:42.259Z,9.76
2022-09-23T01:30:08.918Z,9.83
2022-09-23T01:33:04.703Z,9.76
2022-09-23T01:35:57.777Z,9.80
2022-09-23T01:38:43.424Z,9.74
2022-09-23T01:41:40.533Z,9.86
2022-09-23T01:44:19.810Z,9.83
2022-09-23T01:47:01.685Z,9.83
2022-09-23T01:49:40.395Z,9.73
2022-09-23T01:52:18.192Z,9.69
2022-09-23T01:55:05.982Z,9.66
2022-09-23T01:57:49.257Z,9.63
2022-09-23T02:00:18.358Z,9.60
2022-09-23T02:02:53.087Z,9.54
2022-09-23T02:05:34.840Z,9.59
2022-09-23T02:08:08.849Z,9.46
2022-09-23T02:10:44.318Z,9.53
2022-09-23T02:13:17.622Z,9.53
2022-09-23T02:15:49.837Z,9.54
2022-09-23T02:18:28.518Z,9.44
2022-09-23T02:21:00.319Z,9.44
2022-09-23T02:23:43.480Z,9.43
2022-09-23T02:26:30.424Z,9.53
2022-09-23T02:28:57.175Z,9.43
2022-09-23T02:31:41.871Z,9.47
2022-09-23T02:34:08.495Z,9.46
2022-09-23T02:36:56.078Z,9.35
2022-09-23T02:39:28.352Z,9.33
2022-09-23T02:42:05.225Z,9.36
2022-09-23T02:44:32.731Z,9.36
2022-09-23T02:46:59.887Z,9.28
2022-09-23T02:49:34.080Z,9.29
2022-09-23T02:52:05.427Z,9.23
2022-09-23T02:54:33.599Z,9.19
2022-09-23T02:57:03.793Z,9.16
2022-09-23T02:59:31.788Z,9.11
2022-09-23T03:02:21.753Z,9.10
2022-09-23T03:04:58.432Z,9.04
2022-09-23T03:07:31.718Z,9.05
2022-09-23T03:10:46.505Z,9.11
2022-09-23T03:13:32.408Z,9.10
2022-09-23T03:16:11.830Z,8.98
2022-09-23T03:19:18.500Z,9.12
2022-09-23T03:21:51.686Z,9.07
2022-09-23T03:24:23.940Z,9.18
2022-09-23T03:26:54.162Z,9.19
2022-09-23T03:29:25.265Z,9.04
2022-09-23T03:31:53.387Z,8.95
2022-09-23T03:34:28.283Z,9.01
2022-09-23T03:37:00.855Z,8.95
2022-09-23T03:39:44.149Z,8.94
2022-09-23T03:42:19.046Z,8.78
2022-09-23T03:44:54.762Z,8.81
2022-09-23T03:47:21.587Z,8.75
2022-09-23T03:49:50.944Z,8.68
2022-09-23T03:52:20.148Z,8.95
2022-09-23T03:54:47.008Z,8.78
2022-09-23T03:57:14.246Z,8.84
2022-09-23T03:59:40.984Z,8.82
2022-09-23T04:02:08.214Z,8.82
2022-09-23T04:04:40.104Z,8.81
2022-09-23T04:07:06.586Z,8.80
2022-09-23T04:09:33.260Z,8.89
2022-09-23T04:12:00.651Z,8.77
2022-09-23T04:14:27.342Z,8.67
2022-09-23T04:16:53.749Z,8.64
2022-09-23T04:19:20.334Z,8.80
2022-09-23T04:21:46.900Z,8.61
2022-09-23T04:24:14.703Z,8.63
2022-09-23T04:26:44.529Z,8.64
2022-09-23T04:29:11.533Z,8.57
2022-09-23T04:31:38.286Z,8.49
2022-09-23T04:34:04.775Z,8.53
2022-09-23T04:36:31.233Z,8.57
2022-09-23T04:38:57.726Z,8.50
2022-09-23T04:41:24.107Z,8.49
2022-09-23T04:43:50.468Z,8.37
2022-09-23T04:46:17.170Z,8.37
2022-09-23T04:48:44.200Z,8.40
2022-09-23T04:51:13.818Z,8.39
2022-09-23T04:53:42.841Z,8.42
2022-09-23T04:56:15.479Z,8.30
2022-09-23T04:58:43.252Z,8.32
2022-09-23T05:01:22.113Z,8.37
2022-09-23T05:03:48.578Z,8.44
2022-09-23T05:06:15.450Z,8.36
2022-09-23T05:08:46.937Z,8.43
2022-09-23T05:11:13.327Z,8.33
2022-09-23T05:13:39.870Z,8.29
2022-09-23T05:16:09.850Z,8.22
2022-09-23T05:18:39.003Z,8.43
2022-09-23T05:21:05.542Z,8.44
2022-09-23T05:23:31.968Z,8.46
2022-09-23T05:26:01.147Z,8.37
2022-09-23T05:28:32.875Z,8.30
2022-09-23T05:31:05.226Z,8.44
2022-09-23T05:33:33.079Z,8.33
2022-09-23T05:35:59.976Z,8.40
2022-09-23T05:38:28.285Z,8.43
2022-09-23T05:40:56.969Z,8.30
2022-09-23T05:43:23.733Z,8.43
2022-09-23T05:45:50.842Z,8.23
2022-09-23T05:48:18.719Z,8.28
2022-09-23T05:50:52.634Z,8.42
2022-09-23T05:53:19.478Z,8.36
2022-09-23T05:55:46.025Z,8.47
2022-09-23T05:58:13.503Z,8.52
2022-09-23T06:00:41.752Z,8.60
2022-09-23T06:03:13.762Z,8.50
2022-09-23T06:05:40.549Z,8.59
2022-09-23T06:08:07.893Z,8.52
2022-09-23T06:10:41.627Z,8.54
2022-09-23T06:13:08.936Z,8.65
2022-09-23T06:15:37.301Z,8.64
2022-09-23T06:18:04.803Z,8.92
2022-09-23T06:20:33.226Z,8.98
2022-09-23T06:23:10.324Z,8.97
2022-09-23T06:25:38.450Z,9.04
2022-09-23T06:28:07.413Z,9.08
2022-09-23T06:32:37.296Z,9.29
2022-09-23T06:35:04.056Z,9.28
2022-09-23T06:37:32.525Z,9.33
2022-09-23T06:39:59.007Z,9.38
2022-09-23T06:42:25.412Z,9.46
2022-09-23T06:44:52.642Z,9.49
2022-09-23T06:47:18.997Z,9.57
2022-09-23T06:49:48.657Z,9.70
2022-09-23T06:52:15.281Z,9.80
2022-09-23T06:54:41.978Z,9.93
2022-09-23T06:57:10.080Z,10.02
2022-09-23T06:59:36.490Z,10.32
2022-09-23T07:02:03.053Z,10.69
2022-09-23T07:04:29.761Z,11.27
2022-09-23T07:06:57.373Z,11.41
2022-09-23T07:09:23.788Z,11.79
2022-09-23T07:11:50.182Z,11.81
2022-09-23T07:14:16.591Z,12.16
2022-09-23T07:16:43.368Z,12.38
2022-09-23T07:19:10.715Z,12.60
2022-09-23T07:21:37.655Z,12.76
2022-09-23T07:24:04.941Z,12.99
2022-09-23T07:26:36.568Z,13.00
2022-09-23T07:29:05.196Z,13.56
2022-09-23T07:31:39.133Z,13.65
2022-09-23T07:34:12.065Z,14.16
2022-09-23T07:36:40.730Z,13.94
2022-09-23T07:39:12.168Z,14.12
2022-09-23T07:41:39.069Z,13.73
2022-09-23T07:44:06.417Z,13.70
2022-09-23T07:46:35.916Z,13.54
2022-09-23T07:49:05.480Z,13.42
2022-09-23T07:51:37.138Z,13.93
2022-09-23T07:54:08.160Z,13.85
2022-09-23T07:56:35.813Z,13.44
2022-09-23T07:59:04.564Z,13.56
2022-09-23T08:01:35.541Z,13.64
2022-09-23T08:04:21.100Z,14.01
2022-09-23T08:06:50.309Z,14.42
2022-09-23T08:09:18.770Z,14.56
2022-09-23T08:11:45.748Z,14.37
2022-09-23T08:14:13.789Z,14.55
2022-09-23T08:16:45.605Z,14.33
2022-09-23T08:19:12.847Z,14.05
2022-09-23T08:21:40.421Z,14.26
2022-09-23T08:24:15.467Z,14.11
2022-09-23T08:26:43.138Z,13.95
2022-09-23T08:29:15.792Z,14.05
2022-09-23T08:31:43.518Z,14.16
2022-09-23T08:34:10.234Z,14.35
2022-09-23T08:36:37.075Z,14.18
2022-09-23T08:39:04.957Z,14.36
2022-09-23T08:41:46.452Z,14.55
2022-09-23T08:44:27.655Z,14.85
2022-09-23T08:47:21.829Z,14.73
2022-09-23T08:49:57.621Z,15.04
2022-09-23T08:52:32.696Z,15.22
2022-09-23T08:54:59.366Z,15.52
2022-09-23T08:58:24.651Z,15.69
2022-09-23T09:01:13.303Z,16.44
2022-09-23T09:03:55.230Z,16.09
2022-09-23T09:06:27.255Z,15.97
2022-09-23T09:09:04.027Z,15.99
2022-09-23T09:11:37.319Z,15.46
2022-09-23T09:14:22.500Z,16.09
2022-09-23T09:17:03.699Z,16.03
2022-09-23T09:19:55.336Z,16.37
2022-09-23T09:22:49.804Z,16.25
2022-09-23T09:25:22.454Z,16.00
2022-09-23T09:27:49.013Z,15.96
2022-09-23T09:30:17.197Z,15.86
2022-09-23T09:33:03.505Z,16.25
2022-09-23T09:35:53.941Z,16.61
2022-09-23T09:38:22.030Z,16.82
2022-09-23T09:40:48.752Z,17.47
2022-09-23T09:43:23.288Z,17.68
2022-09-23T09:46:16.426Z,17.38
2022-09-23T09:48:58.666Z,17.40
2022-09-23T09:51:28.378Z,17.54
2022-09-23T09:54:18.307Z,17.55
2022-09-23T09:56:45.310Z,16.88
2022-09-23T09:59:23.260Z,16.57
2022-09-23T10:01:54.570Z,17.69
2022-09-23T10:04:34.265Z,17.33
2022-09-23T10:07:14.449Z,17.43
2022-09-23T10:09:48.941Z,17.51
2022-09-23T10:12:18.890Z,17.81
2022-09-23T10:14:47.265Z,17.85
2022-09-23T10:17:50.181Z,18.34
2022-09-23T10:20:16.731Z,18.23
2022-09-23T10:22:43.227Z,18.29
2022-09-23T10:25:20.160Z,17.83
2022-09-23T10:27:46.913Z,18.13
2022-09-23T10:30:23.977Z,18.57
2022-09-23T10:32:53.143Z,18.39
2022-09-23T10:35:24.384Z,18.70
2022-09-23T10:37:55.353Z,19.05
2022-09-23T10:43:54.428Z,20.68
2022-09-23T10:46:39.677Z,20.99
2022-09-23T10:49:24.918Z,20.17
2022-09-23T10:52:25.459Z,20.46
2022-09-23T10:55:26.516Z,20.61
2022-09-23T10:57:53.078Z,21.10
2022-09-23T11:00:44.344Z,20.28
2022-09-23T11:03:33.715Z,20.36
2022-09-23T11:06:20.108Z,20.96
2022-09-23T11:09:22.613Z,21.19
2022-09-23T11:12:07.367Z,21.67
2022-09-23T11:14:41.528Z,22.84
2022-09-23T11:17:34.377Z,22.57
2022-09-23T11:20:23.624Z,22.56
2022-09-23T11:23:21.470Z,22.99
2022-09-23T11:26:06.713Z,20.13
2022-09-23T11:28:56.988Z,19.36
2022-09-23T11:31:26.407Z,20.10
2022-09-23T11:34:12.462Z,20.08
2022-09-23T11:36:45.480Z,19.76
2022-09-23T11:39:17.779Z,19.74
2022-09-23T11:41:45.275Z,20.36
2022-09-23T11:44:26.178Z,19.63
2022-09-23T11:46:56.407Z,19.50
2022-09-23T11:49:32.665Z,19.28
2022-09-23T11:52:22.786Z,18.98
2022-09-23T11:54:55.773Z,19.50
2022-09-23T11:57:46.059Z,19.18
2022-09-23T12:00:31.776Z,19.47
2022-09-23T12:03:13.219Z,19.25
2022-09-23T12:06:10.119Z,19.31
2022-09-23T12:08:37.189Z,19.29
2022-09-23T12:11:23.594Z,19.94
2022-09-23T12:14:19.260Z,20.56
2022-09-23T12:16:56.143Z,20.18
2022-09-23T12:20:00.481Z,20.49
2022-09-23T12:22:40.337Z,19.49
2022-09-23T12:25:26.758Z,20.24
2022-09-23T12:27:55.171Z,19.80
2022-09-23T12:30:26.642Z,20.24
2022-09-23T12:32:54.264Z,21.00
2022-09-23T12:35:24.258Z,21.16
2022-09-23T12:37:51.832Z,20.75
2022-09-23T12:40:28.670Z,21.19
2022-09-23T12:42:55.349Z,20.96
2022-09-23T12:45:32.548Z,20.53
2022-09-23T12:48:19.792Z,20.39
2022-09-23T12:50:49.144Z,21.00
2022-09-23T12:53:47.503Z,20.79
2022-09-23T12:56:15.299Z,20.65
2022-09-23T12:58:41.834Z,21.02
2022-09-23T13:01:19.124Z,20.31
2022-09-23T13:04:08.039Z,20.72
2022-09-23T13:07:05.125Z,21.14
2022-09-23T13:09:39.036Z,20.75
2022-09-23T13:12:15.706Z,21.58
2022-09-23T13:14:46.420Z,21.69
2022-09-23T13:17:29.202Z,22.10
2022-09-23T13:20:21.618Z,22.25
2022-09-23T13:22:51.822Z,20.99
2022-09-23T13:25:32.447Z,20.94
2022-09-23T13:28:01.961Z,20.56
2022-09-23T13:30:28.527Z,19.84
2022-09-23T13:33:20.949Z,19.46
2022-09-23T13:35:56.643Z,19.78
2022-09-23T13:38:26.116Z,19.80
2022-09-23T13:41:07.316Z,19.41
2022-09-23T13:43:47.846Z,19.19
2022-09-23T13:46:38.295Z,19.15
2022-09-23T13:49:05.615Z,19.28
2022-09-23T13:51:34.790Z,19.36
2022-09-23T13:54:04.011Z,19.52
2022-09-23T13:56:32.636Z,19.22
2022-09-23T13:59:25.633Z,19.32
2022-09-23T14:02:25.738Z,19.53
2022-09-23T14:04:52.723Z,19.34
2022-09-23T14:07:19.776Z,19.26
2022-09-23T14:09:50.966Z,19.50
2022-09-23T14:12:22.502Z,19.52
2022-09-23T14:14:51.802Z,19.60
2022-09-23T14:17:23.050Z,19.62
2022-09-23T14:26:02.313Z,19.31
2022-09-23T14:28:29.323Z,19.26
2022-09-23T14:30:58.268Z,18.98
2022-09-23T14:33:32.106Z,18.80
2022-09-23T14:36:07.552Z,19.02
2022-09-23T14:38:53.489Z,19.09
2022-09-23T14:41:23.851Z,19.26
2022-09-23T14:44:01.096Z,19.11
2022-09-23T14:46:30.460Z,19.22
2022-09-23T14:49:12.212Z,19.26
2022-09-23T14:51:51.811Z,19.34
2022-09-23T14:54:32.486Z,19.42
2022-09-23T14:57:00.117Z,19.41
2022-09-23T14:59:36.950Z,19.25
2022-09-23T15:02:39.278Z,19.29
2022-09-23T15:05:21.375Z,19.43
2022-09-23T15:07:51.393Z,19.43
2022-09-23T15:10:31.707Z,19.25
2022-09-23T15:13:17.725Z,19.23
2022-09-23T15:15:44.568Z,19.23
2022-09-23T15:18:22.431Z,19.19
2022-09-23T15:20:54.093Z,19.12
2022-09-23T15:23:34.476Z,19.06
2022-09-23T15:26:25.785Z,18.83
2022-09-23T15:28:55.803Z,18.91
2022-09-23T15:31:26.338Z,18.78
2022-09-23T15:33:52.791Z,18.84
2022-09-23T15:36:27.701Z,18.68
2022-09-23T15:39:01.931Z,18.68
2022-09-23T15:41:28.449Z,18.74
2022-09-23T15:43:56.371Z,18.78
2022-09-23T15:46:27.190Z,18.84
2022-09-23T15:49:22.987Z,18.71
2022-09-23T15:51:51.993Z,18.81
2022-09-23T15:54:19.351Z,18.75
2022-09-23T15:56:45.712Z,18.78
2022-09-23T15:59:12.738Z,18.70
2022-09-23T16:01:39.587Z,18.61
2022-09-23T16:04:06.140Z,18.54
2022-09-23T16:06:35.836Z,18.50
2022-09-23T16:09:02.551Z,18.39
2022-09-23T16:11:35.998Z,18.33
2022-09-23T16:14:02.494Z,18.25
2022-09-23T16:16:29.137Z,18.26
2022-09-23T16:18:55.582Z,18.27
2022-09-23T16:21:25.746Z,18.26
2022-09-23T16:23:53.343Z,18.13
2022-09-23T16:26:24.096Z,18.16
2022-09-23T16:28:53.038Z,18.12
2022-09-23T16:31:20.809Z,18.27
2022-09-23T16:33:48.542Z,18.27
2022-09-23T16:36:35.978Z,18.37
2022-09-23T16:39:15.879Z,18.13
2022-09-23T16:41:43.413Z,18.13
2022-09-23T16:44:14.284Z,18.05
2022-09-23T16:46:42.705Z,18.12
2022-09-23T16:49:11.898Z,18.13
2022-09-23T16:51:38.870Z,18.13
2022-09-23T16:54:10.165Z,17.95
2022-09-23T16:56:39.102Z,17.96
2022-09-23T16:59:05.952Z,18.04
2022-09-23T17:01:51.395Z,17.77
2022-09-23T17:04:19.299Z,17.79
2022-09-23T17:06:51.333Z,17.67
2022-09-23T17:09:19.887Z,17.51
2022-09-23T17:11:51.871Z,17.57
2022-09-23T17:14:18.413Z,17.41
2022-09-23T17:16:44.834Z,17.41
2022-09-23T17:19:12.176Z,17.30
2022-09-23T17:21:38.821Z,17.23
2022-09-23T17:24:06.045Z,17.20
2022-09-23T17:26:32.874Z,17.21
2022-09-23T17:29:01.506Z,17.16
2022-09-23T17:31:28.320Z,16.99
2022-09-23T17:33:55.291Z,17.02
2022-09-23T17:36:21.904Z,16.89
2022-09-23T17:38:49.252Z,17.02
2022-09-23T17:41:18.018Z,16.76
2022-09-23T17:43:45.309Z,16.72
2022-09-23T17:46:17.882Z,16.64
2022-09-23T17:48:45.000Z,16.67
2022-09-23T17:51:21.541Z,16.61
2022-09-23T17:53:49.017Z,16.49
2022-09-23T17:56:21.152Z,16.49
2022-09-23T17:58:49.734Z,16.41
2022-09-23T18:01:19.411Z,16.45
2022-09-23T18:03:46.691Z,16.41
2022-09-23T18:06:18.557Z,16.34
2022-09-23T18:08:47.785Z,16.41
2022-09-23T18:11:28.439Z,16.34
2022-09-23T18:14:00.318Z,16.17
2022-09-23T18:16:29.197Z,16.18
2022-09-23T18:18:57.736Z,16.27
2022-09-23T18:21:28.062Z,16.06
2022-09-23T18:23:57.316Z,16.01
2022-09-23T18:26:29.620Z,15.94
2022-09-23T18:29:00.834Z,16.01
2022-09-23T18:31:28.962Z,15.94
2022-09-23T18:33:55.921Z,15.96
2022-09-23T18:36:24.129Z,15.91
2022-09-23T18:38:52.330Z,15.90
2022-09-23T18:41:19.644Z,15.87
2022-09-23T18:43:48.511Z,15.97
2022-09-23T18:46:25.387Z,15.91
2022-09-23T18:49:11.454Z,15.82
2022-09-23T18:51:47.820Z,15.69
2022-09-23T18:54:16.025Z,15.76
2022-09-23T18:56:43.700Z,15.67
2022-09-23T18:59:16.600Z,15.52
2022-09-23T19:01:47.399Z,15.55
2022-09-23T19:04:19.521Z,15.51
2022-09-23T19:06:49.048Z,15.51
2022-09-23T19:09:16.493Z,15.48
2022-09-23T19:11:44.890Z,15.55
2022-09-23T19:14:12.364Z,15.48
2022-09-23T19:16:40.211Z,15.46
2022-09-23T19:19:07.161Z,15.41
2022-09-23T19:21:34.074Z,15.39
2022-09-23T19:24:03.649Z,15.45
2022-09-23T19:26:40.510Z,15.48
2022-09-23T19:29:08.798Z,15.43
2022-09-23T19:31:40.525Z,15.32
2022-09-23T19:34:29.331Z,15.48
2022-09-23T19:37:00.241Z,15.45
2022-09-23T19:39:32.128Z,15.34
2022-09-23T19:41:58.997Z,15.34
2022-09-23T19:44:26.687Z,15.30
2022-09-23T19:46:56.784Z,15.41
2022-09-23T19:49:24.589Z,15.35
2022-09-23T19:51:51.724Z,15.27
2022-09-23T19:54:20.387Z,15.36
2022-09-23T19:56:50.482Z,15.27
2022-09-23T19:59:19.110Z,15.24
2022-09-23T20:01:48.821Z,15.22
2022-09-23T20:04:16.056Z,15.12
2022-09-23T20:06:42.860Z,15.14
2022-09-23T20:09:09.366Z,15.35
2022-09-23T20:11:35.967Z,15.03
2022-09-23T20:14:05.692Z,15.05
2022-09-23T20:16:34.972Z,15.04
2022-09-23T20:19:04.184Z,14.94
2022-09-23T20:21:31.458Z,14.85
2022-09-23T20:23:58.125Z,14.85
2022-09-23T20:26:43.440Z,14.79
2022-09-23T20:29:10.987Z,14.62
2022-09-23T20:31:39.845Z,14.60
2022-09-23T20:34:07.335Z,14.51
2022-09-23T20:36:35.254Z,14.55
2022-09-23T20:39:07.892Z,14.44
2022-09-23T20:41:37.418Z,14.42
2022-09-23T20:44:07.460Z,14.51
2022-09-23T20:46:34.577Z,14.42
2022-09-23T20:49:01.967Z,14.53
2022-09-23T20:51:28.720Z,14.60
2022-09-23T20:53:55.502Z,14.48
2022-09-23T20:56:25.794Z,14.56
2022-09-23T20:58:54.019Z,14.53
2022-09-23T21:01:21.438Z,14.40
2022-09-23T21:03:51.262Z,14.35
2022-09-23T21:06:19.319Z,14.36
2022-09-23T21:08:46.604Z,14.51
2022-09-23T21:11:17.810Z,14.66
2022-09-23T21:13:49.059Z,14.51
2022-09-23T21:16:16.990Z,14.57
2022-09-23T21:18:44.635Z,14.67
2022-09-23T21:21:12.169Z,14.59
2022-09-23T21:23:39.329Z,14.49
2022-09-23T21:26:10.486Z,14.43
2022-09-23T21:28:39.962Z,14.43
2022-09-23T21:31:11.985Z,14.40
2022-09-23T21:33:38.819Z,14.23
2022-09-23T21:36:09.542Z,14.46
2022-09-23T21:38:37.435Z,14.26
2022-09-23T21:41:06.726Z,14.23
2022-09-23T21:43:37.217Z,14.37
2022-09-23T21:46:05.847Z,14.32
2022-09-23T21:48:34.082Z,14.15
2022-09-23T21:51:04.343Z,14.25
2022-09-23T21:53:32.656Z,14.09
2022-09-23T21:56:11.232Z,14.00
2022-09-23T21:58:39.381Z,13.90
2022-09-23T22:01:08.952Z,14.00
2022-09-23T22:03:37.844Z,14.04
2022-09-23T22:06:12.611Z,13.97
2022-09-23T22:08:41.588Z,13.87
2022-09-23T22:11:34.708Z,14.00
2022-09-23T22:14:07.076Z,13.97
2022-09-23T22:16:36.884Z,14.05
2022-09-23T22:19:08.172Z,14.05
2022-09-23T22:21:37.448Z,14.18
2022-09-23T22:24:05.355Z,14.04
2022-09-23T22:26:33.863Z,14.09
2022-09-23T22:29:20.513Z,13.97
2022-09-23T22:32:05.350Z,14.08
2022-09-23T22:34:49.201Z,14.12
2022-09-23T22:37:19.957Z,14.00
2022-09-23T22:39:46.657Z,14.01
2022-09-23T22:42:13.477Z,14.04
2022-09-23T22:44:40.206Z,13.94
2022-09-23T22:47:07.089Z,13.84
2022-09-23T22:49:33.642Z,13.81
2022-09-23T22:52:00.165Z,13.71
2022-09-23T22:54:33.722Z,13.71
2022-09-23T22:57:03.134Z,13.61
2022-09-23T22:59:29.861Z,13.60
2022-09-23T23:01:57.199Z,13.48
2022-09-23T23:04:23.764Z,13.50
2022-09-23T23:06:50.193Z,13.54
2022-09-23T23:09:18.826Z,13.51
2022-09-23T23:11:45.678Z,13.57
2022-09-23T23:14:14.569Z,13.58
2022-09-23T23:16:42.050Z,13.77
2022-09-23T23:19:11.978Z,13.70
2022-09-23T23:21:38.707Z,13.64
2022-09-23T23:24:05.497Z,13.54
2022-09-23T23:26:34.097Z,13.54
2022-09-23T23:29:01.571Z,13.44
2022-09-23T23:31:31.744Z,13.43
2022-09-23T23:33:58.138Z,13.68
2022-09-23T23:36:24.521Z,13.58
2022-09-23T23:38:51.683Z,13.47
2022-09-23T23:41:22.439Z,13.67
2022-09-23T23:43:55.166Z,13.70
2022-09-23T23:46:25.237Z,13.54
2022-09-23T23:48:52.801Z,13.46
2022-09-23T23:51:19.840Z,13.44
2022-09-23T23:53:46.596Z,13.40
2022-09-23T23:56:15.633Z,13.46
2022-09-23T23:58:42.726Z,13.34
